createdAt,value
2018-09-11T00:00:29.190Z,101670.03
2018-09-11T00:02:57.460Z,101664.07
2018-09-11T00:05:26.409Z,101669.05
2018-09-11T00:07:54.838Z,101679.41
2018-09-11T00:10:24.181Z,101679.64
2018-09-11T00:12:52.689Z,101679.02
2018-09-11T00:15:20.968Z,101680.89
2018-09-11T00:17:49.641Z,101683.66
2018-09-11T00:20:17.948Z,101689.55
2018-09-11T00:22:47.038Z,101686.73
2018-09-11T00:25:15.560Z,101690.81
2018-09-11T00:27:43.862Z,101691.03
2018-09-11T00:30:12.162Z,101686.31
2018-09-11T00:32:40.572Z,101685.80
2018-09-11T00:35:09.717Z,101686.17
2018-09-11T00:37:37.965Z,101683.05
2018-09-11T00:40:07.096Z,101681.33
2018-09-11T00:42:35.418Z,101684.06
2018-09-11T00:45:03.855Z,101681.42
2018-09-11T00:47:33.081Z,101677.41
2018-09-11T00:50:01.738Z,101672.61
2018-09-11T00:52:30.318Z,101666.90
2018-09-11T00:54:58.752Z,101657.20
2018-09-11T00:57:27.161Z,101666.56
2018-09-11T00:59:55.837Z,101664.16
2018-09-11T01:02:24.269Z,101666.58
2018-09-11T01:04:52.776Z,101657.88
2018-09-11T01:07:22.196Z,101662.55
2018-09-11T01:09:52.291Z,101654.39
2018-09-11T01:12:20.652Z,101668.63
2018-09-11T01:14:49.672Z,101670.32
2018-09-11T01:17:18.229Z,101669.80
2018-09-11T01:19:46.558Z,101679.99
2018-09-11T01:22:14.927Z,101680.81
2018-09-11T01:24:43.251Z,101677.86
2018-09-11T01:27:11.554Z,101676.36
2018-09-11T01:29:40.973Z,101681.49
2018-09-11T01:32:09.652Z,101676.89
2018-09-11T01:34:37.976Z,101668.80
2018-09-11T01:37:06.485Z,101669.45
2018-09-11T01:39:34.886Z,101666.67
2018-09-11T01:42:03.189Z,101664.17
2018-09-11T01:44:31.461Z,101667.05
2018-09-11T01:46:59.937Z,101665.81
2018-09-11T01:49:28.401Z,101659.00
2018-09-11T01:51:56.701Z,101660.42
2018-09-11T01:54:24.965Z,101652.94
2018-09-11T01:56:53.250Z,101655.25
2018-09-11T01:59:21.646Z,101645.34
2018-09-11T02:01:49.941Z,101636.44
2018-09-11T02:04:19.592Z,101651.03
2018-09-11T02:06:47.909Z,101646.98
2018-09-11T02:09:16.238Z,101637.67
2018-09-11T02:11:44.538Z,101638.90
2018-09-11T02:14:12.787Z,101641.11
2018-09-11T02:16:41.214Z,101649.11
2018-09-11T02:19:09.543Z,101656.89
2018-09-11T02:21:37.841Z,101655.62
2018-09-11T02:24:06.100Z,101657.35
2018-09-11T02:26:34.784Z,101655.06
2018-09-11T02:29:03.045Z,101648.95
2018-09-11T02:31:31.336Z,101644.70
2018-09-11T02:33:59.605Z,101647.98
2018-09-11T02:36:27.890Z,101647.47
2018-09-11T02:38:56.149Z,101645.67
2018-09-11T02:41:24.717Z,101650.55
2018-09-11T02:43:53.295Z,101643.36
2018-09-11T02:46:21.575Z,101643.05
2018-09-11T02:48:50.225Z,101653.57
2018-09-11T02:51:19.621Z,101645.71
2018-09-11T02:53:47.904Z,101650.43
2018-09-11T02:56:16.176Z,101650.34
2018-09-11T02:58:44.451Z,101645.82
2018-09-11T03:01:12.747Z,101648.09
2018-09-11T03:03:41.057Z,101650.61
2018-09-11T03:06:09.753Z,101650.91
2018-09-11T03:08:38.026Z,101658.28
2018-09-11T03:11:06.452Z,101656.66
2018-09-11T03:13:34.720Z,101661.98
2018-09-11T03:16:03.460Z,101660.00
2018-09-11T03:18:32.040Z,101660.48
2018-09-11T03:21:00.448Z,101669.72
2018-09-11T03:23:28.726Z,101672.19
2018-09-11T03:25:57.009Z,101675.52
2018-09-11T03:28:25.481Z,101677.27
2018-09-11T03:30:53.762Z,101669.12
2018-09-11T03:33:22.064Z,101669.81
2018-09-11T03:35:50.847Z,101668.64
2018-09-11T03:38:20.228Z,101673.16
2018-09-11T03:40:48.828Z,101664.03
2018-09-11T03:43:17.079Z,101665.64
2018-09-11T03:45:49.257Z,101665.67
2018-09-11T03:48:19.421Z,101664.92
2018-09-11T03:50:50.232Z,101662.38
2018-09-11T03:53:25.757Z,101663.02
2018-09-11T03:55:54.064Z,101669.07
2018-09-11T03:58:22.317Z,101666.80
2018-09-11T13:31:47.135Z,101454.77
2018-09-11T13:37:14.521Z,101444.52
2018-09-11T13:39:44.457Z,101449.27
2018-09-11T13:42:13.519Z,101445.01
2018-09-11T13:44:42.782Z,101447.41
2018-09-11T13:47:11.595Z,101451.41
2018-09-11T13:49:40.657Z,101452.21
2018-09-11T13:52:09.985Z,101445.06
2018-09-11T13:54:39.797Z,101451.42
2018-09-11T13:57:08.600Z,101464.20
2018-09-11T13:59:37.810Z,101448.95
2018-09-11T14:02:06.416Z,101441.25
2018-09-11T14:04:35.750Z,101445.12
2018-09-11T14:07:05.438Z,101438.05
2018-09-11T14:09:35.574Z,101419.87
2018-09-11T14:12:04.709Z,101423.82
2018-09-11T14:14:34.080Z,101417.58
2018-09-11T14:17:04.495Z,101418.68
2018-09-11T14:19:35.802Z,101411.52
2018-09-11T14:22:07.085Z,101411.77
2018-09-11T14:24:36.082Z,101409.38
2018-09-11T14:27:06.163Z,101418.92
2018-09-11T14:29:34.995Z,101413.88
2018-09-11T14:32:04.868Z,101411.55
2018-09-11T14:34:35.629Z,101413.68
2018-09-11T14:37:14.013Z,101429.84
2018-09-11T14:39:46.509Z,101419.39
2018-09-11T14:42:18.326Z,101423.26
2018-09-11T14:44:51.199Z,101425.31
2018-09-11T14:47:21.189Z,101422.41
2018-09-11T14:49:52.448Z,101425.50
2018-09-11T14:52:21.387Z,101428.72
2018-09-11T14:54:51.006Z,101432.93
2018-09-11T14:57:20.154Z,101426.05
2018-09-11T14:59:53.908Z,101410.18
2018-09-11T15:02:25.225Z,101420.09
2018-09-11T15:04:55.797Z,101405.08
2018-09-11T15:07:26.162Z,101401.27
2018-09-11T15:09:54.634Z,101401.30
2018-09-11T15:12:23.294Z,101399.77
2018-09-11T15:14:53.814Z,101408.61
2018-09-11T15:17:31.027Z,101400.83
2018-09-11T15:20:02.350Z,101398.48
2018-09-11T15:22:30.803Z,101396.33
2018-09-11T15:25:00.289Z,101393.08
2018-09-11T15:27:30.351Z,101395.33
2018-09-11T15:29:58.720Z,101388.67
2018-09-11T15:32:28.658Z,101390.55
2018-09-11T15:34:57.217Z,101390.89
2018-09-11T15:37:31.964Z,101390.83
2018-09-11T15:40:03.380Z,101385.17
2018-09-11T15:42:32.772Z,101386.42
2018-09-11T15:45:01.486Z,101383.23
2018-09-11T15:47:32.695Z,101387.33
2018-09-11T15:50:04.590Z,101384.67
2018-09-11T15:52:33.246Z,101390.80
2018-09-11T15:55:02.245Z,101383.02
2018-09-11T15:57:30.659Z,101387.02
2018-09-11T15:59:59.286Z,101384.73
2018-09-11T16:02:30.246Z,101380.04
2018-09-11T16:05:01.999Z,101392.63
2018-09-11T16:07:32.957Z,101386.44
2018-09-11T16:10:02.720Z,101385.74
2018-09-11T16:12:34.348Z,101392.34
2018-09-11T16:15:07.534Z,101379.19
2018-09-11T16:17:36.093Z,101376.62
2018-09-11T16:20:09.050Z,101378.46
2018-09-11T16:22:38.907Z,101376.77
2018-09-11T16:25:09.837Z,101376.33
2018-09-11T16:27:41.306Z,101375.28
2018-09-11T16:30:10.783Z,101372.52
2018-09-11T16:32:39.226Z,101377.03
2018-09-11T16:35:09.212Z,101379.41
2018-09-11T16:37:43.553Z,101386.43
2018-09-11T16:40:14.331Z,101396.67
2018-09-11T16:42:43.878Z,101393.52
2018-09-11T16:45:14.779Z,101399.26
2018-09-11T16:47:49.401Z,101385.63
2018-09-11T16:50:18.616Z,101392.55
2018-09-11T16:52:49.180Z,101388.98
2018-09-11T16:55:18.676Z,101382.05
2018-09-11T16:57:48.157Z,101380.89
2018-09-11T17:00:17.203Z,101375.17
2018-09-11T17:02:46.756Z,101376.98
2018-09-11T17:05:17.387Z,101370.56
2018-09-11T17:07:47.284Z,101373.92
2018-09-11T17:10:18.888Z,101381.16
2018-09-11T17:12:51.871Z,101379.87
2018-09-11T17:15:21.293Z,101389.05
2018-09-11T17:17:50.701Z,101388.61
2018-09-11T17:20:22.143Z,101391.58
2018-09-11T17:22:53.722Z,101394.20
2018-09-11T17:25:22.725Z,101395.52
2018-09-11T17:27:55.114Z,101388.45
2018-09-11T17:30:25.494Z,101389.72
2018-09-11T17:32:56.717Z,101396.91
2018-09-11T17:35:31.067Z,101397.50
2018-09-11T17:38:03.154Z,101394.59
2018-09-11T17:40:35.751Z,101397.77
2018-09-11T17:43:04.970Z,101405.33
2018-09-11T17:45:40.189Z,101406.08
2018-09-11T17:48:10.303Z,101406.05
2018-09-11T17:50:48.664Z,101406.30
2018-09-11T17:53:23.375Z,101392.46
2018-09-11T17:55:52.518Z,101400.97
2018-09-11T17:58:24.405Z,101403.03
2018-09-11T18:00:56.257Z,101402.13
2018-09-11T18:03:29.115Z,101401.67
2018-09-11T18:06:00.218Z,101408.43
2018-09-11T18:08:29.907Z,101412.89
2018-09-11T18:11:00.680Z,101409.76
2018-09-11T18:13:29.298Z,101410.09
2018-09-11T18:15:59.392Z,101411.61
2018-09-11T18:18:29.395Z,101409.87
2018-09-11T18:20:58.461Z,101415.80
2018-09-11T18:23:27.737Z,101417.03
2018-09-11T18:26:00.521Z,101425.74
2018-09-11T18:28:31.785Z,101425.08
2018-09-11T18:31:01.980Z,101427.27
2018-09-11T18:33:31.232Z,101431.72
2018-09-11T18:36:00.767Z,101427.00
2018-09-11T18:38:37.181Z,101426.53
2018-09-11T18:41:11.672Z,101434.11
2018-09-11T18:43:41.590Z,101437.03
2018-09-11T18:46:11.939Z,101436.33
2018-09-11T18:48:41.947Z,101433.98
2018-09-11T18:51:13.578Z,101431.03
2018-09-11T18:53:43.712Z,101437.37
2018-09-11T18:56:14.664Z,101435.22
2018-09-11T18:58:50.667Z,101437.91
2018-09-11T19:01:20.953Z,101433.52
2018-09-11T19:03:50.989Z,101440.97
2018-09-11T19:06:20.951Z,101441.17
2018-09-11T19:08:57.769Z,101439.45
2018-09-11T19:11:35.009Z,101449.81
2018-09-11T19:14:05.714Z,101446.08
2018-09-11T19:17:41.303Z,101449.01
2018-09-11T19:20:27.400Z,101445.43
2018-09-11T19:22:58.185Z,101443.34
2018-09-11T19:25:30.653Z,101444.98
2018-09-11T19:28:00.741Z,101450.32
2018-09-11T19:30:33.681Z,101454.87
2018-09-11T19:33:08.054Z,101452.39
2018-09-11T19:35:38.424Z,101460.48
2018-09-11T19:38:19.188Z,101465.80
2018-09-11T19:40:51.300Z,101459.41
2018-09-11T19:43:22.426Z,101462.56
2018-09-11T19:45:52.023Z,101468.07
2018-09-11T19:48:27.513Z,101465.89
2018-09-11T19:51:00.089Z,101466.80
2018-09-11T19:53:29.983Z,101466.63
2018-09-11T19:56:02.089Z,101470.35
2018-09-11T19:58:33.468Z,101468.80
2018-09-11T20:01:02.075Z,101474.37
2018-09-11T20:03:32.161Z,101471.59
2018-09-11T20:06:02.033Z,101473.65
2018-09-11T20:08:31.388Z,101477.71
2018-09-11T20:12:02.985Z,101480.05
2018-09-11T20:14:32.530Z,101486.90
2018-09-11T20:17:03.270Z,101477.02
2018-09-11T20:19:32.169Z,101481.23
2018-09-11T20:22:00.781Z,101485.13
2018-09-11T20:24:34.087Z,101487.46
2018-09-11T20:27:07.359Z,101490.91
2018-09-11T20:29:38.864Z,101492.80
2018-09-11T20:32:07.642Z,101487.37
2018-09-11T20:34:36.182Z,101487.20
2018-09-11T20:37:07.749Z,101488.54
2018-09-11T20:39:37.635Z,101488.89
2018-09-11T20:42:07.577Z,101491.05
2018-09-11T20:44:39.085Z,101491.88
2018-09-11T20:47:08.650Z,101492.22
2018-09-11T20:49:37.728Z,101491.68
2018-09-11T20:52:09.692Z,101492.08
2018-09-11T20:54:40.209Z,101499.86
2018-09-11T20:57:08.741Z,101487.14
2018-09-11T20:59:39.039Z,101494.63
2018-09-11T21:02:07.726Z,101495.98
2018-09-11T21:04:38.618Z,101497.95
2018-09-11T21:07:09.235Z,101501.00
2018-09-11T21:09:39.108Z,101503.90
2018-09-11T21:12:10.603Z,101501.41
2018-09-11T21:14:43.367Z,101497.14
2018-09-11T21:17:12.118Z,101490.13
2018-09-11T21:19:42.916Z,101493.68
2018-09-11T21:22:14.074Z,101498.85
2018-09-11T21:24:47.086Z,101498.56
2018-09-11T21:27:16.697Z,101488.86
2018-09-11T21:29:47.662Z,101488.05
2018-09-11T21:32:17.654Z,101496.70
2018-09-11T21:34:46.550Z,101497.63
2018-09-11T21:37:17.806Z,101496.59
2018-09-11T21:39:48.839Z,101497.87
2018-09-11T21:42:21.099Z,101497.07
2018-09-11T21:44:52.523Z,101492.16
2018-09-11T21:47:23.484Z,101489.16
2018-09-11T21:49:57.219Z,101486.95
2018-09-11T21:52:27.525Z,101487.06
2018-09-11T21:54:56.949Z,101486.91
2018-09-11T21:57:27.040Z,101488.40
2018-09-11T21:59:55.391Z,101493.95
2018-09-11T22:02:25.105Z,101493.98
2018-09-11T22:04:55.391Z,101495.53
2018-09-11T22:07:25.154Z,101495.95
2018-09-11T22:09:55.348Z,101496.88
2018-09-11T22:12:24.337Z,101489.36
2018-09-11T22:14:52.759Z,101494.70
2018-09-11T22:17:22.139Z,101490.94
2018-09-11T22:19:50.719Z,101493.15
2018-09-11T22:22:19.838Z,101491.82
2018-09-11T22:24:48.131Z,101488.80
2018-09-11T22:27:17.193Z,101490.44
2018-09-11T22:29:45.981Z,101484.61
2018-09-11T22:32:14.365Z,101485.52
2018-09-11T22:34:42.832Z,101483.31
2018-09-11T22:37:11.593Z,101484.51
2018-09-11T22:39:41.004Z,101480.09
2018-09-11T22:42:11.116Z,101483.72
2018-09-11T22:44:40.666Z,101480.25
2018-09-11T22:47:09.258Z,101483.52
2018-09-11T22:49:37.526Z,101484.50
2018-09-11T22:52:06.908Z,101480.04
2018-09-11T22:54:35.947Z,101480.95
2018-09-11T22:57:04.320Z,101484.55
2018-09-11T22:59:32.773Z,101475.10
2018-09-11T23:02:01.071Z,101476.06
2018-09-11T23:04:29.424Z,101473.41
2018-09-11T23:07:01.066Z,101475.95
2018-09-11T23:09:30.494Z,101480.44
2018-09-11T23:11:58.929Z,101470.36
2018-09-11T23:14:27.955Z,101477.52
2018-09-11T23:16:56.644Z,101479.08
2018-09-11T23:19:25.303Z,101472.66
2018-09-11T23:21:54.870Z,101469.34
2018-09-11T23:24:23.321Z,101470.94
2018-09-11T23:26:51.608Z,101474.73
2018-09-11T23:29:20.064Z,101467.59
2018-09-11T23:31:49.141Z,101471.14
2018-09-11T23:34:17.428Z,101472.28
2018-09-11T23:36:45.924Z,101472.77
2018-09-11T23:39:15.082Z,101472.67
2018-09-11T23:41:44.726Z,101470.50
2018-09-11T23:44:13.696Z,101479.36
2018-09-11T23:46:41.986Z,101473.22
2018-09-11T23:49:10.403Z,101463.55
2018-09-11T23:51:38.908Z,101462.19
2018-09-11T23:54:07.701Z,101462.19
2018-09-11T23:56:36.469Z,101458.14
2018-09-11T23:59:05.307Z,101453.14
